createdAt,value
2019-04-13T00:00:05.582Z,4.92
2019-04-13T00:01:05.501Z,4.92
2019-04-13T00:02:05.418Z,4.95
2019-04-13T00:03:05.339Z,5.02
2019-04-13T00:04:05.255Z,4.99
2019-04-13T00:05:05.172Z,4.99
2019-04-13T00:06:05.091Z,5.10
2019-04-13T00:07:05.009Z,5.05
2019-04-13T00:08:04.927Z,5.06
2019-04-13T00:09:04.845Z,5.16
2019-04-13T00:10:04.763Z,5.18
2019-04-13T00:11:04.681Z,5.03
2019-04-13T00:12:04.599Z,5.10
2019-04-13T00:13:04.517Z,4.98
2019-04-13T00:14:04.436Z,4.91
2019-04-13T00:15:04.354Z,4.87
2019-04-13T00:16:04.272Z,4.88
2019-04-13T00:17:04.190Z,4.76
2019-04-13T00:18:04.108Z,4.73
2019-04-13T00:19:04.030Z,4.69
2019-04-13T00:20:03.953Z,4.64
2019-04-13T00:21:03.864Z,4.68
2019-04-13T00:22:03.782Z,4.54
2019-04-13T00:23:03.697Z,4.52
2019-04-13T00:24:03.771Z,4.56
2019-04-13T00:25:03.538Z,4.55
2019-04-13T00:26:03.456Z,4.55
2019-04-13T00:27:03.385Z,4.56
2019-04-13T00:28:03.287Z,4.61
2019-04-13T00:29:03.206Z,4.61
2019-04-13T00:30:03.123Z,4.69
2019-04-13T00:31:03.041Z,4.69
2019-04-13T00:32:02.958Z,4.65
2019-04-13T00:33:02.878Z,4.66
2019-04-13T00:34:02.795Z,4.68
2019-04-13T00:35:02.713Z,4.69
2019-04-13T00:36:02.633Z,4.73
2019-04-13T00:37:02.549Z,4.65
2019-04-13T00:38:02.467Z,4.64
2019-04-13T00:39:02.384Z,4.61
2019-04-13T00:40:02.334Z,4.66
2019-04-13T00:41:02.220Z,4.65
2019-04-13T00:42:02.137Z,4.62
2019-04-13T00:43:02.059Z,4.55
2019-04-13T00:44:01.978Z,4.52
2019-04-13T00:45:01.894Z,4.66
2019-04-13T00:46:01.810Z,4.59
2019-04-13T00:47:01.932Z,4.61
2019-04-13T00:48:01.648Z,4.55
2019-04-13T00:49:01.564Z,4.55
2019-04-13T00:50:01.480Z,4.54
2019-04-13T00:51:01.399Z,4.54
2019-04-13T00:52:01.518Z,4.52
2019-04-13T00:53:01.234Z,4.55
2019-04-13T00:54:01.152Z,4.68
2019-04-13T00:55:01.070Z,4.52
2019-04-13T00:56:00.988Z,4.50
2019-04-13T00:57:00.909Z,4.54
2019-04-13T00:58:00.823Z,4.55
2019-04-13T00:59:00.744Z,4.55
2019-04-13T01:00:00.658Z,4.58
2019-04-13T01:01:00.779Z,4.52
2019-04-13T01:02:00.505Z,4.48
2019-04-13T01:03:00.413Z,4.47
2019-04-13T01:04:00.328Z,4.47
2019-04-13T01:05:00.248Z,4.34
2019-04-13T01:06:00.217Z,4.46
2019-04-13T01:07:00.086Z,4.46
2019-04-13T01:08:00.002Z,4.48
2019-04-13T01:08:59.920Z,4.34
2019-04-13T01:09:59.837Z,4.40
2019-04-13T01:10:59.757Z,4.40
2019-04-13T01:11:59.673Z,4.40
2019-04-13T01:12:59.593Z,4.47
2019-04-13T01:13:59.508Z,4.40
2019-04-13T01:14:59.434Z,4.44
2019-04-13T01:15:59.351Z,4.46
2019-04-13T01:16:59.262Z,4.37
2019-04-13T01:17:59.181Z,4.30
2019-04-13T01:18:59.432Z,4.34
2019-04-13T01:19:59.022Z,4.29
2019-04-13T01:20:58.934Z,4.29
2019-04-13T01:21:58.850Z,4.26
2019-04-13T01:22:58.767Z,4.23
2019-04-13T01:23:58.687Z,4.26
2019-04-13T01:24:58.604Z,4.20
2019-04-13T01:25:58.521Z,4.20
2019-04-13T01:26:58.439Z,4.11
2019-04-13T01:27:58.356Z,4.19
2019-04-13T01:28:58.279Z,4.18
2019-04-13T01:29:58.192Z,4.12
2019-04-13T01:30:58.110Z,4.05
2019-04-13T01:31:58.033Z,4.11
2019-04-13T01:32:57.972Z,4.12
2019-04-13T01:33:57.891Z,4.15
2019-04-13T01:35:05.789Z,4.26
2019-04-13T01:35:57.747Z,4.16
2019-04-13T01:36:57.614Z,4.16
2019-04-13T01:37:57.531Z,4.19
2019-04-13T01:38:57.450Z,4.19
2019-04-13T01:39:57.367Z,4.10
2019-04-13T01:40:57.284Z,4.15
2019-04-13T01:42:57.118Z,4.08
2019-04-13T01:43:57.034Z,4.22
2019-04-13T01:44:56.951Z,4.15
2019-04-13T01:45:56.872Z,4.22
2019-04-13T01:46:56.788Z,4.18
2019-04-13T01:47:57.369Z,4.15
2019-04-13T01:48:56.652Z,4.15
2019-04-13T01:49:56.539Z,4.18
2019-04-13T01:50:56.458Z,4.23
2019-04-13T01:51:56.372Z,4.15
2019-04-13T01:52:56.290Z,4.10
2019-04-13T01:53:56.210Z,4.22
2019-04-13T01:54:56.126Z,4.32
2019-04-13T01:55:56.044Z,4.36
2019-04-13T01:56:55.961Z,4.38
2019-04-13T01:57:55.878Z,4.29
2019-04-13T01:58:55.796Z,4.22
2019-04-13T01:59:55.714Z,4.29
2019-04-13T02:00:55.631Z,4.16
2019-04-13T02:01:55.549Z,4.19
2019-04-13T02:02:55.565Z,4.29
2019-04-13T02:03:55.382Z,4.28
2019-04-13T02:04:55.301Z,4.30
2019-04-13T02:05:55.218Z,4.37
2019-04-13T02:06:55.135Z,4.28
2019-04-13T02:07:55.052Z,4.29
2019-04-13T02:08:54.970Z,4.10
2019-04-13T02:09:54.889Z,4.08
2019-04-13T02:10:54.811Z,4.12
2019-04-13T02:11:54.723Z,4.04
2019-04-13T02:12:54.641Z,4.05
2019-04-13T02:13:54.558Z,4.01
2019-04-13T02:14:54.481Z,4.05
2019-04-13T02:15:54.392Z,4.18
2019-04-13T02:16:54.315Z,4.07
2019-04-13T02:17:54.227Z,4.26
2019-04-13T02:18:54.145Z,4.26
2019-04-13T02:19:54.063Z,4.11
2019-04-13T02:20:53.983Z,4.15
2019-04-13T02:21:53.899Z,4.10
2019-04-13T02:22:53.816Z,4.18
2019-04-13T02:23:53.832Z,4.18
2019-04-13T02:24:53.652Z,4.12
2019-04-13T02:25:53.570Z,4.05
2019-04-13T02:26:53.487Z,4.18
2019-04-13T02:27:53.403Z,4.18
2019-04-13T02:28:53.321Z,4.25
2019-04-13T02:29:53.239Z,4.25
2019-04-13T02:30:53.156Z,4.20
2019-04-13T02:31:53.073Z,4.12
2019-04-13T02:32:52.991Z,4.23
2019-04-13T02:33:52.909Z,4.25
2019-04-13T02:34:52.826Z,4.28
2019-04-13T02:35:52.746Z,4.16
2019-04-13T02:36:52.664Z,4.20
2019-04-13T02:37:52.579Z,4.22
2019-04-13T02:38:52.598Z,4.20
2019-04-13T02:39:52.415Z,4.20
2019-04-13T02:40:52.334Z,4.18
2019-04-13T02:41:52.252Z,4.18
2019-04-13T02:42:52.167Z,4.16
2019-04-13T02:43:52.117Z,4.11
2019-04-13T02:44:52.051Z,4.08
2019-04-13T02:45:51.924Z,4.10
2019-04-13T02:46:51.838Z,4.05
2019-04-13T02:47:51.754Z,4.07
2019-04-13T02:48:51.673Z,4.01
2019-04-13T02:49:51.590Z,4.11
2019-04-13T02:50:51.509Z,4.04
2019-04-13T02:51:51.429Z,3.98
2019-04-13T02:52:51.343Z,4.02
2019-04-13T02:53:51.262Z,4.15
2019-04-13T02:54:51.178Z,4.02
2019-04-13T02:55:51.121Z,4.16
2019-04-13T02:56:51.012Z,4.01
2019-04-13T02:57:50.931Z,3.97
2019-04-13T02:58:50.848Z,3.90
2019-04-13T02:59:50.764Z,3.89
2019-04-13T03:00:50.733Z,3.86
2019-04-13T03:01:50.600Z,3.98
2019-04-13T03:02:50.520Z,3.94
2019-04-13T03:03:50.435Z,3.97
2019-04-13T03:04:50.352Z,4.00
2019-04-13T03:05:50.269Z,4.07
2019-04-13T03:06:50.195Z,4.07
2019-04-13T03:07:50.111Z,3.98
2019-04-13T03:08:50.022Z,4.08
2019-04-13T03:09:49.941Z,4.10
2019-04-13T03:10:49.857Z,4.05
2019-04-13T03:11:49.773Z,4.15
2019-04-13T03:12:49.700Z,4.02
2019-04-13T03:13:49.610Z,3.90
2019-04-13T03:14:49.527Z,3.94
2019-04-13T03:15:49.443Z,3.90
2019-04-13T03:16:49.411Z,3.86
2019-04-13T03:17:49.482Z,3.83
2019-04-13T03:18:49.195Z,3.79
2019-04-13T03:19:49.114Z,3.83
2019-04-13T03:20:49.031Z,3.84
2019-04-13T03:21:49.200Z,3.83
2019-04-13T03:22:48.866Z,3.68
2019-04-13T03:23:48.781Z,3.68
2019-04-13T03:24:48.699Z,3.71
2019-04-13T03:25:48.618Z,3.77
2019-04-13T03:26:48.535Z,3.83
2019-04-13T03:27:48.451Z,3.79
2019-04-13T03:28:48.393Z,3.89
2019-04-13T03:29:48.317Z,3.87
2019-04-13T03:30:50.115Z,3.86
2019-04-13T03:31:48.222Z,3.94
2019-04-13T03:32:48.038Z,4.02
2019-04-13T03:33:47.954Z,4.00
2019-04-13T03:34:47.871Z,3.94
2019-04-13T03:35:58.847Z,4.02
2019-04-13T03:36:47.706Z,3.98
2019-04-13T03:37:47.623Z,4.00
2019-04-13T03:38:47.545Z,3.90
2019-04-13T03:39:47.458Z,4.02
2019-04-13T03:40:47.376Z,3.87
2019-04-13T03:41:47.391Z,4.00
2019-04-13T03:42:47.209Z,3.83
2019-04-13T03:43:47.125Z,3.87
2019-04-13T03:44:47.042Z,3.87
2019-04-13T03:45:46.961Z,3.89
2019-04-13T03:46:46.979Z,3.83
2019-04-13T03:47:46.796Z,3.92
2019-04-13T03:48:46.712Z,3.86
2019-04-13T03:49:46.629Z,3.86
2019-04-13T03:50:46.547Z,3.86
2019-04-13T03:51:46.464Z,3.83
2019-04-13T03:52:46.382Z,3.94
2019-04-13T03:53:46.302Z,3.87
2019-04-13T03:54:46.217Z,3.86
2019-04-13T03:55:46.134Z,3.77
2019-04-13T03:56:46.050Z,3.72
2019-04-13T03:57:45.968Z,3.77
2019-04-13T03:58:45.886Z,3.72
2019-04-13T03:59:45.802Z,3.74
2019-04-13T04:00:45.720Z,3.69
2019-04-13T04:01:45.695Z,3.65
2019-04-13T04:02:45.605Z,3.69
2019-04-13T04:03:45.470Z,3.68
2019-04-13T04:04:45.386Z,3.72
2019-04-13T04:05:45.306Z,3.69
2019-04-13T04:06:45.272Z,3.69
2019-04-13T04:07:45.138Z,3.61
2019-04-13T04:08:45.056Z,3.61
2019-04-13T04:09:44.973Z,3.62
2019-04-13T04:10:44.891Z,3.64
2019-04-13T04:11:44.809Z,3.64
2019-04-13T04:12:44.724Z,3.64
2019-04-13T04:13:44.643Z,3.61
2019-04-13T04:14:44.566Z,3.59
2019-04-13T04:15:44.476Z,3.61
2019-04-13T04:16:44.392Z,3.61
2019-04-13T04:17:44.310Z,3.57
2019-04-13T04:18:44.228Z,3.72
2019-04-13T04:19:44.143Z,3.79
2019-04-13T04:20:44.063Z,3.80
2019-04-13T04:21:43.978Z,3.69
2019-04-13T04:22:43.898Z,3.77
2019-04-13T04:23:43.816Z,3.75
2019-04-13T04:24:43.730Z,3.71
2019-04-13T04:25:43.656Z,3.74
2019-04-13T04:26:43.564Z,3.74
2019-04-13T04:27:43.482Z,3.69
2019-04-13T04:28:43.397Z,3.82
2019-04-13T04:29:43.315Z,3.72
2019-04-13T04:30:43.232Z,3.84
2019-04-13T04:31:43.150Z,3.77
2019-04-13T04:32:43.065Z,3.84
2019-04-13T04:33:42.984Z,3.75
2019-04-13T04:34:42.902Z,3.80
2019-04-13T04:35:42.817Z,3.69
2019-04-13T07:30:52.099Z,3.64
2019-04-13T07:34:52.374Z,3.50
2019-04-13T09:45:40.719Z,4.30
2019-04-13T09:46:40.638Z,4.34
2019-04-13T09:47:42.289Z,4.50
2019-04-13T09:48:40.484Z,4.52
2019-04-13T09:49:40.391Z,4.55
2019-04-13T09:50:40.309Z,4.62
2019-04-13T09:51:40.231Z,4.65
2019-04-13T09:52:40.147Z,4.52
2019-04-13T09:53:40.064Z,4.40
2019-04-13T09:54:40.802Z,4.23
2019-04-13T09:55:39.902Z,4.29
2019-04-13T09:56:39.821Z,4.34
2019-04-13T09:57:39.738Z,4.50
2019-04-13T09:58:39.658Z,4.50
2019-04-13T09:59:39.576Z,4.58
2019-04-13T10:00:39.496Z,4.55
2019-04-13T10:01:39.412Z,4.69
2019-04-13T10:02:39.336Z,4.74
2019-04-13T10:42:38.388Z,4.64
2019-04-13T10:43:36.216Z,4.54
2019-04-13T10:53:35.369Z,4.69
2019-04-13T11:21:21.738Z,4.99
2019-04-13T11:51:06.141Z,5.31
2019-04-13T11:52:06.068Z,5.23
2019-04-13T11:53:05.981Z,5.38
2019-04-13T11:54:05.899Z,5.39
2019-04-13T11:55:05.823Z,5.70
2019-04-13T11:56:05.926Z,5.81
2019-04-13T11:57:05.657Z,5.95
2019-04-13T11:58:05.577Z,5.97
2019-04-13T11:59:05.498Z,6.04
2019-04-13T12:00:05.418Z,6.08
2019-04-13T12:01:06.999Z,5.97
2019-04-13T12:02:05.257Z,6.10
2019-04-13T12:03:05.177Z,6.30
2019-04-13T12:04:05.097Z,6.50
2019-04-13T12:05:05.017Z,6.52
2019-04-13T12:06:05.589Z,6.47
2019-04-13T12:07:04.855Z,6.37
2019-04-13T12:08:04.779Z,5.88
2019-04-13T12:09:04.697Z,6.06
2019-04-13T12:10:04.627Z,6.14
2019-04-13T12:11:04.537Z,6.15
2019-04-13T12:12:04.460Z,6.15
2019-04-13T12:13:04.383Z,6.32
2019-04-13T12:14:04.297Z,6.07
2019-04-13T12:15:06.775Z,6.15
2019-04-13T12:16:04.142Z,6.29
2019-04-13T12:17:04.058Z,6.50
2019-04-13T12:18:03.979Z,6.70
2019-04-13T12:19:03.902Z,6.63
2019-04-13T12:20:03.818Z,6.73
2019-04-13T12:21:03.739Z,6.72
2019-04-13T12:22:03.664Z,6.90
2019-04-13T12:23:03.795Z,6.80
2019-04-13T12:24:03.501Z,6.52
2019-04-13T12:25:03.421Z,6.34
2019-04-13T12:26:03.343Z,6.37
2019-04-13T12:27:03.268Z,6.22
2019-04-13T12:28:03.185Z,6.29
2019-04-13T12:29:03.103Z,6.32
2019-04-13T12:30:03.025Z,6.42
2019-04-13T12:31:02.964Z,6.73
2019-04-13T12:32:02.867Z,6.99
2019-04-13T12:33:02.789Z,7.19
2019-04-13T12:34:03.278Z,7.35
2019-04-13T12:35:07.423Z,7.29
2019-04-13T12:36:02.551Z,7.30
2019-04-13T12:37:03.696Z,7.45
2019-04-13T12:38:04.013Z,7.39
2019-04-13T12:39:02.321Z,7.37
2019-04-13T12:40:03.691Z,7.34
2019-04-13T12:41:02.155Z,7.49
2019-04-13T12:42:02.076Z,7.76
2019-04-13T12:43:02.001Z,7.72
2019-04-13T12:44:02.256Z,7.97
2019-04-13T12:45:01.841Z,8.04
2019-04-13T12:46:01.865Z,8.30
2019-04-13T12:47:01.686Z,8.39
2019-04-13T12:48:01.608Z,8.36
2019-04-13T12:49:01.538Z,8.25
2019-04-13T12:50:01.457Z,8.43
2019-04-13T12:51:01.375Z,8.29
2019-04-13T12:52:01.300Z,8.24
2019-04-13T12:53:01.221Z,8.17
2019-04-13T12:54:04.596Z,8.24
2019-04-13T12:55:01.068Z,8.34
2019-04-13T12:56:00.992Z,8.36
2019-04-13T12:57:00.918Z,8.30
2019-04-13T12:58:00.837Z,8.40
2019-04-13T12:59:00.762Z,8.55
2019-04-13T13:00:01.473Z,8.76
2019-04-13T13:01:00.608Z,8.57
2019-04-13T13:02:00.533Z,8.39
2019-04-13T13:03:00.454Z,8.44
2019-04-13T13:04:00.379Z,8.32
2019-04-13T13:05:00.306Z,8.22
2019-04-13T13:06:00.428Z,8.15
2019-04-13T13:07:00.150Z,8.11
2019-04-13T13:08:00.074Z,8.09
2019-04-13T13:09:01.464Z,8.01
2019-04-13T13:09:59.919Z,7.99
2019-04-13T13:10:59.896Z,7.86
2019-04-13T13:11:59.766Z,8.11
2019-04-13T13:12:59.689Z,8.18
2019-04-13T13:13:59.612Z,8.34
2019-04-13T13:14:59.537Z,8.47
2019-04-13T13:15:59.459Z,8.29
2019-04-13T13:16:59.382Z,8.30
2019-04-13T13:17:59.314Z,8.43
2019-04-13T13:19:00.721Z,8.18
2019-04-13T13:19:59.152Z,8.11
2019-04-13T13:20:59.075Z,8.18
2019-04-13T13:21:58.999Z,8.12
2019-04-13T13:22:58.921Z,7.97
2019-04-13T13:23:58.845Z,7.94
2019-04-13T13:24:58.768Z,7.72
2019-04-13T13:25:58.693Z,7.70
2019-04-13T13:27:01.879Z,7.49
2019-04-13T13:27:58.539Z,7.55
2019-04-13T13:28:58.460Z,7.73
2019-04-13T13:29:58.382Z,7.67
2019-04-13T13:30:58.305Z,7.83
2019-04-13T13:31:58.232Z,7.99
2019-04-13T13:32:59.137Z,8.04
2019-04-13T13:33:58.076Z,8.06
2019-04-13T13:35:00.857Z,7.91
2019-04-13T13:35:57.919Z,8.00
2019-04-13T13:36:57.841Z,7.63
2019-04-13T13:37:57.764Z,7.39
2019-04-13T13:38:57.686Z,7.34
2019-04-13T13:39:57.611Z,7.29
2019-04-13T13:40:57.531Z,7.34
2019-04-13T13:41:57.454Z,7.01
2019-04-13T13:42:57.402Z,7.11
2019-04-13T13:43:57.298Z,7.19
2019-04-13T13:44:57.219Z,6.91
2019-04-13T13:45:57.143Z,6.90
2019-04-13T13:46:57.064Z,6.91
2019-04-13T13:47:56.987Z,7.06
2019-04-13T13:48:57.007Z,6.96
2019-04-13T13:49:56.830Z,7.01
2019-04-13T13:50:56.751Z,6.96
2019-04-13T13:52:01.229Z,6.96
2019-04-13T13:52:56.596Z,6.99
2019-04-13T13:53:56.514Z,7.12
2019-04-13T13:54:56.436Z,7.19
2019-04-13T13:55:56.357Z,7.24
2019-04-13T13:56:56.277Z,7.24
2019-04-13T13:57:56.205Z,7.20
2019-04-13T13:58:56.120Z,7.12
2019-04-13T13:59:56.043Z,7.31
2019-04-13T14:00:55.962Z,7.13
2019-04-13T14:01:55.884Z,7.13
2019-04-13T14:02:55.804Z,7.13
2019-04-13T14:03:55.728Z,7.11
2019-04-13T14:04:58.356Z,7.09
2019-04-13T14:05:55.567Z,7.03
2019-04-13T14:06:55.491Z,7.03
2019-04-13T14:07:55.410Z,6.96
2019-04-13T14:08:55.330Z,7.06
2019-04-13T14:09:55.251Z,7.09
2019-04-13T14:10:55.172Z,7.12
2019-04-13T14:11:55.094Z,7.11
2019-04-13T14:12:55.013Z,6.98
2019-04-13T14:13:54.934Z,6.94
2019-04-13T14:14:54.857Z,6.98
2019-04-13T14:15:54.777Z,7.11
2019-04-13T14:16:54.695Z,7.13
2019-04-13T14:17:55.578Z,6.94
2019-04-13T14:18:57.434Z,6.98
2019-04-13T14:19:54.508Z,6.87
2019-04-13T14:20:54.381Z,6.93
2019-04-13T14:21:54.299Z,6.94
2019-04-13T14:22:54.219Z,7.08
2019-04-13T14:23:54.141Z,6.94
2019-04-13T14:24:54.060Z,7.02
2019-04-13T14:25:53.981Z,7.03
2019-04-13T14:26:53.904Z,7.01
2019-04-13T14:27:53.828Z,7.01
2019-04-13T14:28:53.742Z,6.96
2019-04-13T14:29:53.668Z,6.90
2019-04-13T14:30:53.589Z,6.93
2019-04-13T14:31:53.506Z,6.90
2019-04-13T14:32:53.424Z,6.88
2019-04-13T14:33:53.345Z,6.91
2019-04-13T14:34:53.281Z,6.91
2019-04-13T14:35:53.187Z,6.72
2019-04-13T14:36:53.107Z,6.80
2019-04-13T14:37:53.028Z,6.72
2019-04-13T14:38:52.947Z,6.80
2019-04-13T14:39:52.868Z,6.69
2019-04-13T14:40:56.090Z,6.69
2019-04-13T14:41:52.708Z,6.73
2019-04-13T14:42:52.628Z,6.75
2019-04-13T14:43:53.092Z,6.69
2019-04-13T14:44:54.805Z,6.90
2019-04-13T14:45:52.390Z,6.86
2019-04-13T14:46:52.310Z,6.99
2019-04-13T14:47:52.233Z,7.01
2019-04-13T14:48:52.151Z,7.12
2019-04-13T14:49:52.071Z,6.96
2019-04-13T14:50:51.992Z,6.87
2019-04-13T14:51:52.802Z,6.93
2019-04-13T14:52:51.832Z,6.91
2019-04-13T14:53:51.752Z,6.93
2019-04-13T14:54:52.992Z,7.01
2019-04-13T14:55:51.593Z,7.03
2019-04-13T14:56:51.513Z,7.09
2019-04-13T14:57:51.436Z,7.08
2019-04-13T14:58:51.354Z,6.88
2019-04-13T14:59:51.276Z,6.90
2019-04-13T15:00:51.203Z,6.96
2019-04-13T15:01:51.115Z,7.06
2019-04-13T15:02:51.036Z,7.08
2019-04-13T15:03:50.956Z,7.12
2019-04-13T15:04:50.875Z,7.26
2019-04-13T15:05:50.797Z,7.23
2019-04-13T15:06:52.195Z,7.29
2019-04-13T15:07:50.637Z,7.37
2019-04-13T15:08:50.560Z,7.44
2019-04-13T15:09:52.780Z,7.31
2019-04-13T15:10:51.119Z,7.39
2019-04-13T15:11:50.321Z,7.48
2019-04-13T15:12:50.241Z,7.41
2019-04-13T15:13:51.421Z,7.45
2019-04-13T15:14:50.083Z,7.42
2019-04-13T15:15:50.569Z,7.49
2019-04-13T15:16:51.049Z,7.53
2019-04-13T15:17:49.844Z,7.64
2019-04-13T15:18:50.328Z,7.72
2019-04-13T15:19:59.865Z,7.48
2019-04-13T15:20:51.790Z,7.55
2019-04-13T15:21:50.288Z,7.49
2019-04-13T15:22:53.799Z,7.44
2019-04-13T15:23:49.471Z,7.23
2019-04-13T15:24:52.126Z,7.17
2019-04-13T15:25:49.213Z,7.19
2019-04-13T15:26:51.841Z,7.09
2019-04-13T15:27:53.121Z,7.05
2019-04-13T15:28:49.468Z,7.01
2019-04-13T15:29:49.865Z,7.02
2019-04-13T15:30:51.459Z,7.09
2019-04-13T15:31:48.967Z,7.17
2019-04-13T15:32:49.425Z,7.11
2019-04-13T15:33:53.350Z,7.01
2019-04-13T15:34:48.953Z,6.91
2019-04-13T15:35:54.111Z,6.83
2019-04-13T15:36:48.598Z,6.78
2019-04-13T15:37:50.035Z,6.80
2019-04-13T15:38:48.339Z,6.80
2019-04-13T15:39:48.904Z,6.73
2019-04-13T15:40:52.707Z,6.78
2019-04-13T15:41:58.852Z,6.86
2019-04-13T15:42:55.222Z,6.87
2019-04-13T15:43:49.811Z,6.86
2019-04-13T15:44:50.710Z,6.78
2019-04-13T15:45:50.504Z,6.76
2019-04-13T15:46:47.985Z,6.75
2019-04-13T15:47:47.465Z,6.84
2019-04-13T15:48:47.573Z,6.91
2019-04-13T15:49:48.284Z,6.88
2019-04-13T15:50:47.229Z,6.84
2019-04-13T15:51:47.749Z,6.86
2019-04-13T15:52:47.066Z,6.91
2019-04-13T15:53:47.388Z,7.01
2019-04-13T15:54:47.280Z,7.02
2019-04-13T15:55:46.826Z,6.84
2019-04-13T15:56:47.445Z,6.87
2019-04-13T15:57:47.055Z,6.87
2019-04-13T15:58:46.711Z,6.83
2019-04-13T15:59:46.506Z,6.78
2019-04-13T16:00:46.437Z,6.72
2019-04-13T16:01:46.787Z,6.70
2019-04-13T16:02:46.266Z,6.65
2019-04-13T16:03:46.733Z,6.72
2019-04-13T16:04:47.235Z,6.70
2019-04-13T16:05:46.026Z,6.68
2019-04-13T16:06:46.420Z,6.63
2019-04-13T16:07:45.865Z,6.68
2019-04-13T16:08:46.965Z,6.65
2019-04-13T16:09:45.704Z,6.55
2019-04-13T16:10:45.627Z,6.57
2019-04-13T16:11:53.708Z,6.50
2019-04-13T16:12:45.465Z,6.51
2019-04-13T16:13:45.510Z,6.47
2019-04-13T16:14:46.305Z,6.51
2019-04-13T16:15:45.415Z,6.54
2019-04-13T16:16:45.787Z,6.62
2019-04-13T16:17:45.062Z,6.65
2019-04-13T16:18:45.558Z,6.68
2019-04-13T16:19:45.878Z,6.68
2019-04-13T16:20:44.821Z,6.69
2019-04-13T16:21:45.453Z,6.68
2019-04-13T16:22:45.124Z,6.68
2019-04-13T16:23:46.990Z,6.48
2019-04-13T16:24:44.501Z,6.48
2019-04-13T16:25:44.595Z,6.59
2019-04-13T16:26:44.341Z,6.59
2019-04-13T16:27:44.509Z,6.41
2019-04-13T16:28:44.179Z,6.27
2019-04-13T16:29:44.677Z,6.22
2019-04-13T16:30:44.018Z,6.17
2019-04-13T16:31:44.040Z,6.07
2019-04-13T16:32:44.844Z,6.08
2019-04-13T16:33:43.777Z,5.95
2019-04-13T16:34:43.696Z,5.95
2019-04-13T16:35:43.615Z,5.93
2019-04-13T16:36:44.040Z,5.90
2019-04-13T16:37:44.169Z,5.83
2019-04-13T16:38:54.592Z,5.85
2019-04-13T16:39:43.501Z,5.75
2019-04-13T16:40:43.677Z,5.75
2019-04-13T16:41:55.130Z,5.81
2019-04-13T16:42:43.253Z,5.77
2019-04-13T16:43:43.083Z,5.92
2019-04-13T16:44:45.473Z,5.92
2019-04-13T16:45:42.807Z,5.93
2019-04-13T16:46:42.907Z,5.89
2019-04-13T16:47:43.762Z,5.77
2019-04-13T16:48:43.334Z,5.93
2019-04-13T16:49:42.484Z,5.88
2019-04-13T16:50:42.404Z,5.89
2019-04-13T16:51:43.476Z,5.78
2019-04-13T16:52:43.049Z,5.71
2019-04-13T16:53:43.080Z,5.72
2019-04-13T16:54:50.444Z,5.72
2019-04-13T16:55:41.998Z,5.60
2019-04-13T16:56:41.917Z,5.59
2019-04-13T16:57:43.236Z,5.62
2019-04-13T16:58:42.127Z,5.59
2019-04-13T16:59:42.743Z,5.49
2019-04-13T17:00:42.582Z,5.53
2019-04-13T17:01:41.782Z,5.49
2019-04-13T17:02:42.375Z,5.53
2019-04-13T17:03:41.351Z,5.52
2019-04-13T17:04:42.257Z,5.60
2019-04-13T17:05:41.908Z,5.59
2019-04-13T17:06:41.929Z,5.47
2019-04-13T17:07:41.025Z,5.50
2019-04-13T17:08:41.244Z,5.38
2019-04-13T17:09:41.492Z,5.49
2019-04-13T17:10:42.024Z,5.49
2019-04-13T17:11:41.905Z,5.44
2019-04-13T17:12:44.453Z,5.42
2019-04-13T17:13:41.229Z,5.52
2019-04-13T17:14:41.334Z,5.47
2019-04-13T17:15:40.524Z,5.41
2019-04-13T17:16:40.292Z,5.39
2019-04-13T17:17:40.599Z,5.36
2019-04-13T17:18:40.240Z,5.39
2019-04-13T17:19:40.783Z,5.47
2019-04-13T17:20:39.964Z,5.39
2019-04-13T17:21:40.075Z,5.41
2019-04-13T17:22:39.802Z,5.34
2019-04-13T17:23:39.971Z,5.39
2019-04-13T17:24:40.263Z,5.29
2019-04-13T17:25:39.558Z,5.32
2019-04-13T17:26:40.090Z,5.21
2019-04-13T17:27:40.140Z,5.26
2019-04-13T17:28:39.470Z,5.26
2019-04-13T17:29:39.231Z,5.17
2019-04-13T17:30:41.991Z,5.11
2019-04-13T17:31:39.288Z,5.14
2019-04-13T17:32:39.237Z,5.10
2019-04-13T17:33:39.799Z,5.11
2019-04-13T17:34:38.825Z,5.11
2019-04-13T17:35:38.872Z,5.06
2019-04-13T17:36:39.809Z,5.13
2019-04-13T17:37:39.830Z,5.16
2019-04-13T17:38:39.353Z,5.11
2019-04-13T17:39:38.417Z,5.05
2019-04-13T17:40:38.421Z,4.99
2019-04-13T17:41:38.301Z,5.03
2019-04-13T17:42:43.173Z,5.02
2019-04-13T17:43:38.736Z,5.05
2019-04-13T17:44:38.007Z,5.11
2019-04-13T17:45:37.929Z,5.17
2019-04-13T17:46:38.607Z,5.23
2019-04-13T17:47:37.762Z,5.20
2019-04-13T17:48:37.686Z,5.23
2019-04-13T17:49:38.484Z,5.21
2019-04-13T17:50:38.670Z,5.23
2019-04-13T17:51:37.634Z,5.21
2019-04-13T17:52:38.316Z,5.05
2019-04-13T17:53:37.273Z,4.99
2019-04-13T17:54:37.421Z,4.85
2019-04-13T17:55:37.110Z,4.99
2019-04-13T17:56:37.031Z,4.96
2019-04-13T17:57:37.275Z,5.06
2019-04-13T17:58:37.651Z,5.11
2019-04-13T17:59:36.783Z,5.10
2019-04-13T18:00:37.251Z,5.16
2019-04-13T18:01:37.521Z,5.20
2019-04-13T18:02:36.538Z,5.14
2019-04-13T18:03:36.462Z,5.13
2019-04-13T18:04:37.318Z,5.16
2019-04-13T18:05:36.292Z,5.16
2019-04-13T18:06:36.212Z,5.11
2019-04-13T18:07:37.292Z,5.13
2019-04-13T18:08:43.089Z,5.03
2019-04-13T18:09:36.962Z,5.00
2019-04-13T18:10:35.987Z,5.10
2019-04-13T18:11:36.192Z,5.06
2019-04-13T18:12:43.613Z,5.03
2019-04-13T18:13:45.240Z,4.93
2019-04-13T18:14:36.076Z,4.83
2019-04-13T18:15:36.591Z,4.85
2019-04-13T18:16:35.396Z,4.88
2019-04-13T18:17:36.528Z,4.88
2019-04-13T18:18:35.418Z,4.87
2019-04-13T18:19:35.631Z,4.80
2019-04-13T18:20:36.358Z,4.76
2019-04-13T18:21:34.986Z,4.73
2019-04-13T18:22:37.481Z,4.72
2019-04-13T18:23:36.015Z,4.68
2019-04-13T18:24:34.740Z,4.69
2019-04-13T18:25:42.489Z,4.68
2019-04-13T18:26:35.647Z,4.72
2019-04-13T18:27:34.925Z,4.72
2019-04-13T18:28:35.566Z,4.65
2019-04-13T18:29:34.699Z,4.61
2019-04-13T18:30:37.807Z,4.65
2019-04-13T18:32:34.086Z,4.55
2019-04-13T18:33:34.655Z,4.62
2019-04-13T18:34:34.353Z,4.52
2019-04-13T18:35:33.838Z,4.50
2019-04-13T18:36:34.266Z,4.55
2019-04-13T18:37:33.673Z,4.48
2019-04-13T18:38:33.592Z,4.46
2019-04-13T18:39:34.829Z,4.48
2019-04-13T18:40:34.385Z,4.43
2019-04-13T18:41:33.354Z,4.47
2019-04-13T18:42:33.265Z,4.50
2019-04-13T18:43:33.181Z,4.54
2019-04-13T18:44:34.262Z,4.48
2019-04-13T18:45:33.054Z,4.55
2019-04-13T18:46:34.075Z,4.55
2019-04-13T18:47:32.873Z,4.48
2019-04-13T18:48:33.958Z,4.47
2019-04-13T18:49:32.686Z,4.52
2019-04-13T18:50:33.180Z,4.54
2019-04-13T18:51:33.330Z,4.43
2019-04-13T18:52:32.440Z,4.43
2019-04-13T18:53:32.358Z,4.44
2019-04-13T18:54:32.276Z,4.28
2019-04-13T18:55:33.018Z,4.36
2019-04-13T18:56:33.188Z,4.28
2019-04-13T18:57:32.028Z,4.26
2019-04-13T18:58:31.949Z,4.28
2019-04-13T18:59:31.872Z,4.23
2019-04-13T19:00:32.191Z,4.28
2019-04-13T19:01:32.327Z,4.25
2019-04-13T19:02:31.619Z,4.12
2019-04-13T19:03:31.537Z,4.18
2019-04-13T19:04:31.454Z,4.12
2019-04-13T19:05:31.372Z,4.04
2019-04-13T19:06:31.292Z,4.05
2019-04-13T19:07:31.208Z,4.12
2019-04-13T19:08:31.125Z,4.08
2019-04-13T19:09:31.042Z,4.12
2019-04-13T19:10:31.064Z,4.15
2019-04-13T19:11:30.876Z,3.97
2019-04-13T19:12:30.795Z,3.97
2019-04-13T19:13:30.712Z,4.01
2019-04-13T19:14:30.630Z,3.98
2019-04-13T19:15:30.549Z,3.84
2019-04-13T19:16:30.467Z,3.83
2019-04-13T19:17:30.383Z,3.89
2019-04-13T19:18:30.300Z,3.84
2019-04-13T19:19:30.220Z,3.84
2019-04-13T19:20:30.135Z,3.69
2019-04-13T19:21:30.054Z,3.61
2019-04-13T19:22:29.970Z,3.64
2019-04-13T19:23:29.887Z,3.61
2019-04-13T19:24:29.807Z,3.54
2019-04-13T19:25:29.723Z,3.35
2019-04-13T19:26:29.641Z,3.43
2019-04-13T19:27:29.559Z,3.32
2019-04-13T19:28:29.475Z,3.28
2019-04-13T19:29:29.391Z,3.31
2019-04-13T19:30:29.308Z,3.21
2019-04-13T19:31:29.227Z,3.14
2019-04-13T19:32:29.145Z,3.16
2019-04-13T19:33:29.061Z,3.13
2019-04-13T19:34:28.977Z,3.13
2019-04-13T19:35:28.895Z,3.14
2019-04-13T19:36:28.810Z,3.14
2019-04-13T19:37:28.728Z,3.10
2019-04-13T19:38:28.645Z,3.11
2019-04-13T19:39:28.561Z,3.13
2019-04-13T19:40:28.478Z,3.07
2019-04-13T19:41:28.395Z,3.11
2019-04-13T19:42:28.314Z,3.07
2019-04-13T19:43:28.230Z,3.16
2019-04-13T19:44:28.146Z,3.09
2019-04-13T19:45:28.063Z,2.98
2019-04-13T19:46:27.981Z,2.98
2019-04-13T19:47:27.897Z,2.96
2019-04-13T19:48:27.813Z,3.04
2019-04-13T19:49:27.731Z,3.04
2019-04-13T19:50:27.648Z,3.03
2019-04-13T19:51:27.565Z,2.96
2019-04-13T19:52:27.481Z,3.07
2019-04-13T19:53:27.398Z,3.13
2019-04-13T19:54:27.314Z,3.11
2019-04-13T19:55:27.231Z,3.19
2019-04-13T19:56:27.151Z,3.22
2019-04-13T19:57:27.063Z,3.17
2019-04-13T19:58:26.981Z,3.24
2019-04-13T19:59:26.898Z,3.24
2019-04-13T20:00:26.814Z,3.29
2019-04-13T20:01:26.733Z,3.31
2019-04-13T20:02:26.649Z,3.25
2019-04-13T20:03:26.565Z,3.21
2019-04-13T20:04:26.481Z,3.27
2019-04-13T20:05:26.398Z,3.28
2019-04-13T20:06:26.316Z,3.28
2019-04-13T20:07:26.236Z,3.17
2019-04-13T20:08:26.151Z,3.17
2019-04-13T20:09:26.066Z,3.21